createdAt,value
2018-08-23T00:00:12.305Z,60.70
2018-08-23T00:02:40.296Z,60.90
2018-08-23T00:05:08.356Z,60.70
2018-08-23T00:07:36.303Z,60.70
2018-08-23T00:10:04.296Z,60.70
2018-08-23T00:13:09.005Z,60.70
2018-08-23T00:15:36.982Z,60.70
2018-08-23T00:18:05.013Z,60.70
2018-08-23T00:20:35.952Z,60.60
2018-08-23T00:23:04.443Z,60.70
2018-08-23T00:25:32.925Z,60.70
2018-08-23T00:28:00.902Z,60.70
2018-08-23T00:30:29.685Z,60.60
2018-08-23T00:32:58.680Z,60.60
2018-08-23T00:35:26.683Z,60.60
2018-08-23T00:37:54.660Z,60.60
2018-08-23T00:40:22.649Z,60.60
2018-08-23T00:42:56.242Z,60.70
2018-08-23T00:45:24.203Z,60.80
2018-08-23T00:47:52.190Z,61.10
2018-08-23T00:50:26.233Z,61.40
2018-08-23T00:52:54.627Z,61.10
2018-08-23T00:57:58.764Z,61.40
2018-08-23T01:00:31.342Z,61.60
2018-08-23T01:03:01.960Z,61.70
2018-08-23T01:05:34.900Z,61.80
2018-08-23T01:08:03.465Z,62.00
2018-08-23T01:10:31.427Z,62.30
2018-08-23T01:13:01.148Z,62.50
2018-08-23T01:15:29.800Z,62.50
2018-08-23T01:18:12.212Z,62.80
2018-08-23T01:20:41.202Z,62.80
2018-08-23T01:23:09.392Z,63.20
2018-08-23T01:25:41.128Z,63.50
2018-08-23T01:28:09.719Z,63.90
2018-08-23T01:30:38.201Z,64.00
2018-08-23T01:33:09.443Z,64.20
2018-08-23T01:35:39.374Z,64.30
2018-08-23T01:38:07.615Z,64.40
2018-08-23T01:40:35.665Z,64.40
2018-08-23T01:43:03.626Z,64.30
2018-08-23T01:45:31.603Z,64.40
2018-08-23T01:48:03.099Z,64.70
2018-08-23T01:50:31.136Z,64.60
2018-08-23T01:52:59.124Z,64.40
2018-08-23T01:55:27.130Z,64.50
2018-08-23T01:57:55.380Z,64.60
2018-08-23T02:00:24.701Z,64.60
2018-08-23T02:02:52.649Z,64.70
2018-08-23T02:05:20.699Z,64.80
2018-08-23T02:07:48.712Z,64.80
2018-08-23T02:10:16.683Z,64.80
2018-08-23T02:12:49.768Z,64.80
2018-08-23T02:15:17.767Z,64.60
2018-08-23T02:17:52.669Z,64.40
2018-08-23T02:20:21.043Z,63.70
2018-08-23T02:22:49.006Z,63.20
2018-08-23T02:25:16.957Z,63.00
2018-08-23T02:28:02.047Z,62.50
2018-08-23T02:30:49.701Z,62.30
2018-08-23T02:33:17.795Z,61.60
2018-08-23T02:36:04.683Z,61.00
2018-08-23T02:38:32.839Z,60.40
2018-08-23T02:41:00.841Z,59.90
2018-08-23T02:43:29.602Z,59.60
2018-08-23T02:45:57.565Z,59.50
2018-08-23T02:48:25.574Z,59.40
2018-08-23T02:50:53.927Z,59.30
2018-08-23T02:53:37.269Z,59.20
2018-08-23T02:56:09.272Z,59.10
2018-08-23T02:58:58.904Z,59.20
2018-08-23T03:01:28.984Z,59.30
2018-08-23T03:04:08.095Z,59.40
2018-08-23T03:07:12.560Z,59.40
2018-08-23T03:09:42.812Z,59.40
2018-08-23T03:12:17.998Z,59.50
2018-08-23T03:14:46.219Z,59.80
2018-08-23T03:17:17.470Z,59.40
2018-08-23T03:19:58.233Z,59.50
2018-08-23T03:22:26.566Z,59.40
2018-08-23T03:24:55.170Z,59.50
2018-08-23T03:27:23.170Z,59.40
2018-08-23T03:29:51.250Z,59.40
2018-08-23T03:32:19.214Z,59.50
2018-08-23T03:34:47.483Z,59.50
2018-08-23T03:37:15.764Z,59.60
2018-08-23T03:39:43.779Z,59.50
2018-08-23T03:42:11.827Z,59.60
2018-08-23T03:44:39.809Z,59.60
2018-08-23T03:47:07.784Z,59.50
2018-08-23T03:49:41.257Z,59.40
2018-08-23T03:52:09.300Z,59.20
2018-08-23T03:54:37.290Z,59.20
2018-08-23T03:57:18.669Z,59.30
2018-08-23T03:59:51.744Z,59.30
2018-08-23T04:02:20.846Z,59.30
2018-08-23T04:04:50.188Z,59.40
2018-08-23T04:07:18.544Z,59.50
2018-08-23T04:09:46.514Z,59.40
2018-08-23T04:12:14.464Z,59.30
2018-08-23T04:14:42.441Z,59.20
2018-08-23T04:17:11.093Z,59.00
2018-08-23T04:22:16.591Z,58.90
2018-08-23T04:24:48.457Z,58.80
2018-08-23T04:27:18.048Z,58.80
2018-08-23T04:29:46.508Z,58.70
2018-08-23T04:32:17.989Z,58.70
2018-08-23T04:34:46.195Z,58.60
2018-08-23T04:37:15.228Z,58.60
2018-08-23T04:39:49.618Z,58.70
2018-08-23T04:42:18.142Z,58.70
2018-08-23T04:44:51.104Z,58.70
2018-08-23T04:47:19.640Z,58.70
2018-08-23T04:49:50.608Z,58.70
2018-08-23T04:52:18.608Z,58.70
2018-08-23T04:54:47.190Z,58.70
2018-08-23T04:57:15.263Z,58.70
2018-08-23T04:59:43.368Z,58.70
2018-08-23T05:02:11.386Z,58.80
2018-08-23T05:04:42.628Z,58.90
2018-08-23T05:07:10.643Z,59.00
2018-08-23T05:09:38.623Z,59.10
2018-08-23T05:12:06.576Z,59.10
2018-08-23T05:14:34.557Z,59.20
2018-08-23T05:17:02.540Z,59.00
2018-08-23T05:19:30.496Z,59.00
2018-08-23T05:21:58.476Z,59.00
2018-08-23T05:24:26.440Z,58.90
2018-08-23T05:26:54.403Z,58.90
2018-08-23T05:29:22.722Z,58.90
2018-08-23T05:31:50.692Z,58.80
2018-08-23T05:34:18.668Z,59.00
2018-08-23T05:36:46.640Z,59.00
2018-08-23T05:39:15.026Z,59.00
2018-08-23T05:41:42.978Z,59.00
2018-08-23T05:44:16.364Z,58.90
2018-08-23T05:46:48.424Z,58.90
2018-08-23T05:49:16.372Z,58.90
2018-08-23T05:51:45.067Z,58.80
2018-08-23T05:54:13.204Z,58.80
2018-08-23T05:56:41.282Z,58.70
2018-08-23T05:59:14.920Z,58.70
2018-08-23T06:01:43.690Z,58.60
2018-08-23T06:04:11.691Z,58.60
2018-08-23T06:06:39.747Z,58.70
2018-08-23T06:09:11.532Z,58.80
2018-08-23T06:11:39.690Z,58.70
2018-08-23T06:14:07.656Z,58.80
2018-08-23T06:16:39.417Z,58.70
2018-08-23T06:19:07.424Z,58.80
2018-08-23T06:21:35.385Z,58.80
2018-08-23T06:24:07.708Z,58.80
2018-08-23T06:26:44.084Z,58.80
2018-08-23T06:29:31.106Z,58.80
2018-08-23T06:32:10.452Z,58.80
2018-08-23T06:34:47.229Z,58.90
2018-08-23T06:37:15.837Z,58.90
2018-08-23T06:39:43.838Z,58.80
2018-08-23T06:42:11.833Z,58.80
2018-08-23T06:44:55.403Z,58.70
2018-08-23T06:47:24.695Z,58.70
2018-08-23T06:49:53.668Z,58.60
2018-08-23T06:52:31.985Z,58.40
2018-08-23T06:55:00.387Z,58.30
2018-08-23T06:57:38.703Z,58.30
2018-08-23T07:00:06.934Z,58.20
2018-08-23T07:02:35.081Z,58.30
2018-08-23T07:05:03.245Z,58.10
2018-08-23T07:07:31.357Z,58.20
2018-08-23T07:09:59.514Z,58.20
2018-08-23T07:12:27.485Z,58.10
2018-08-23T07:14:55.456Z,58.00
2018-08-23T07:17:26.774Z,57.90
2018-08-23T07:19:54.962Z,58.00
2018-08-23T07:22:25.039Z,58.40
2018-08-23T07:24:54.236Z,58.00
2018-08-23T07:27:23.099Z,58.00
2018-08-23T07:29:52.561Z,58.00
2018-08-23T07:32:23.430Z,58.50
2018-08-23T07:34:57.655Z,57.70
2018-08-23T07:37:25.604Z,57.60
2018-08-23T07:39:59.074Z,57.50
2018-08-23T07:42:28.448Z,57.30
2018-08-23T07:44:57.143Z,57.20
2018-08-23T07:47:25.263Z,57.10
2018-08-23T07:49:54.616Z,57.10
2018-08-23T07:54:56.397Z,57.20
2018-08-23T07:57:24.346Z,56.40
2018-08-23T07:59:57.864Z,56.40
2018-08-23T08:02:27.288Z,56.20
2018-08-23T08:04:55.500Z,56.30
2018-08-23T08:07:32.970Z,56.30
2018-08-23T08:10:01.858Z,56.30
2018-08-23T08:12:36.259Z,56.10
2018-08-23T08:15:05.561Z,56.10
2018-08-23T08:17:34.222Z,55.90
2018-08-23T08:20:04.441Z,55.80
2018-08-23T08:22:32.445Z,55.70
2018-08-23T08:25:06.670Z,55.70
2018-08-23T08:27:34.809Z,55.50
2018-08-23T08:30:02.767Z,55.30
2018-08-23T08:32:30.740Z,55.20
2018-08-23T08:34:59.569Z,54.90
2018-08-23T08:37:28.546Z,54.70
2018-08-23T08:39:57.311Z,54.70
2018-08-23T08:42:26.512Z,54.50
2018-08-23T08:44:58.082Z,54.20
2018-08-23T08:47:26.048Z,53.90
2018-08-23T08:49:54.160Z,52.90
2018-08-23T08:52:22.126Z,53.00
2018-08-23T08:54:50.076Z,52.10
2018-08-23T08:57:18.171Z,51.70
2018-08-23T08:59:46.024Z,52.40
2018-08-23T09:02:14.158Z,50.80
2018-08-23T09:04:42.128Z,50.10
2018-08-23T09:07:10.161Z,49.80
2018-08-23T09:09:39.627Z,49.30
2018-08-23T09:12:09.850Z,49.10
2018-08-23T09:14:38.848Z,49.20
2018-08-23T09:17:23.691Z,48.70
2018-08-23T09:19:59.031Z,48.90
2018-08-23T09:22:27.014Z,48.70
2018-08-23T09:24:54.966Z,48.40
2018-08-23T09:27:23.403Z,47.90
2018-08-23T09:29:51.388Z,48.00
2018-08-23T09:32:24.915Z,48.20
2018-08-23T09:34:57.913Z,47.90
2018-08-23T09:37:26.613Z,47.50
2018-08-23T09:39:54.598Z,47.10
2018-08-23T09:42:22.582Z,46.70
2018-08-23T09:45:03.523Z,46.40
2018-08-23T09:47:31.564Z,46.70
2018-08-23T09:50:00.240Z,46.60
2018-08-23T09:52:29.377Z,46.50
2018-08-23T09:54:57.458Z,46.30
2018-08-23T09:57:26.033Z,46.20
2018-08-23T09:59:55.127Z,46.00
2018-08-23T10:03:27.326Z,46.30
2018-08-23T10:06:05.639Z,46.40
2018-08-23T10:08:39.540Z,46.10
2018-08-23T10:11:18.134Z,45.80
2018-08-23T10:13:51.493Z,45.60
2018-08-23T10:16:24.971Z,46.10
2018-08-23T10:18:56.120Z,46.20
2018-08-23T10:21:29.471Z,46.10
2018-08-23T10:24:15.547Z,46.20
2018-08-23T10:26:43.557Z,46.40
2018-08-23T10:29:11.491Z,46.40
2018-08-23T10:31:39.485Z,46.40
2018-08-23T10:34:07.480Z,46.20
2018-08-23T10:36:35.426Z,46.30
2018-08-23T10:39:03.761Z,46.30
2018-08-23T10:41:31.851Z,46.20
2018-08-23T10:43:59.851Z,45.70
2018-08-23T10:46:28.134Z,45.40
2018-08-23T10:48:56.088Z,45.30
2018-08-23T10:51:24.051Z,45.50
2018-08-23T10:53:52.036Z,45.60
2018-08-23T10:56:19.997Z,45.40
2018-08-23T10:58:48.187Z,45.00
2018-08-23T11:01:16.154Z,45.40
2018-08-23T11:03:44.108Z,45.20
2018-08-23T11:06:12.126Z,44.70
2018-08-23T11:08:40.121Z,44.60
2018-08-23T11:11:17.017Z,44.40
2018-08-23T11:13:46.130Z,44.80
2018-08-23T11:16:19.591Z,44.50
2018-08-23T11:18:53.073Z,44.90
2018-08-23T11:21:21.204Z,44.90
2018-08-23T11:23:49.158Z,44.90
2018-08-23T11:26:28.613Z,44.70
2018-08-23T11:28:56.573Z,44.30
2018-08-23T11:31:29.279Z,44.30
2018-08-23T11:33:57.261Z,44.50
2018-08-23T11:36:25.230Z,44.60
2018-08-23T11:38:53.207Z,44.70
2018-08-23T11:41:21.200Z,44.30
2018-08-23T11:43:49.583Z,44.20
2018-08-23T11:46:18.911Z,44.60
2018-08-23T11:48:47.552Z,44.70
2018-08-23T11:51:16.300Z,44.60
2018-08-23T11:53:45.002Z,44.30
2018-08-23T11:56:12.799Z,44.30
2018-08-23T11:58:42.393Z,44.40
2018-08-23T12:01:11.756Z,44.50
2018-08-23T12:03:40.344Z,44.20
2018-08-23T12:06:09.739Z,44.10
2018-08-23T12:08:37.696Z,44.20
2018-08-23T12:11:05.676Z,43.90
2018-08-23T12:13:33.834Z,43.80
2018-08-23T12:16:03.184Z,43.50
2018-08-23T12:18:35.425Z,43.50
2018-08-23T12:23:38.055Z,43.60
2018-08-23T12:26:06.069Z,44.20
2018-08-23T12:28:39.804Z,43.40
2018-08-23T12:31:07.768Z,43.70
2018-08-23T12:33:35.719Z,43.40
2018-08-23T12:36:06.379Z,43.50
2018-08-23T12:38:40.094Z,42.90
2018-08-23T12:41:13.665Z,42.70
2018-08-23T12:43:48.446Z,42.70
2018-08-23T12:46:16.785Z,42.70
2018-08-23T12:48:45.153Z,42.20
2018-08-23T12:51:13.377Z,42.20
2018-08-23T12:53:41.396Z,42.20
2018-08-23T12:56:09.364Z,41.90
2018-08-23T12:58:37.335Z,41.90
2018-08-23T13:01:05.320Z,41.70
2018-08-23T13:03:33.361Z,41.50
2018-08-23T13:06:01.271Z,41.80
2018-08-23T13:08:29.230Z,41.70
2018-08-23T13:10:57.204Z,41.10
2018-08-23T13:13:25.196Z,41.40
2018-08-23T13:15:53.183Z,41.50
2018-08-23T13:18:21.159Z,41.30
2018-08-23T13:20:49.415Z,41.40
2018-08-23T13:23:17.440Z,41.20
2018-08-23T13:25:50.852Z,41.30
2018-08-23T13:28:18.818Z,41.40
2018-08-23T13:30:46.798Z,41.20
2018-08-23T13:33:14.749Z,41.30
2018-08-23T13:35:42.722Z,41.00
2018-08-23T13:38:10.721Z,40.10
2018-08-23T13:40:38.765Z,40.20
2018-08-23T13:43:07.140Z,39.70
2018-08-23T13:45:35.124Z,39.40
2018-08-23T13:48:03.087Z,39.40
2018-08-23T13:50:31.384Z,39.20
2018-08-23T13:52:59.345Z,38.90
2018-08-23T13:55:27.364Z,38.90
2018-08-23T13:57:55.338Z,39.10
2018-08-23T14:00:28.753Z,39.30
2018-08-23T14:02:57.408Z,39.10
2018-08-23T14:05:25.432Z,39.10
2018-08-23T14:07:53.427Z,38.90
2018-08-23T14:10:21.384Z,39.20
2018-08-23T14:12:49.492Z,38.80
2018-08-23T14:15:22.977Z,39.00
2018-08-23T14:17:50.945Z,39.00
2018-08-23T14:20:18.930Z,38.80
2018-08-23T14:22:46.909Z,38.80
2018-08-23T14:25:14.911Z,38.70
2018-08-23T14:27:42.881Z,37.90
2018-08-23T14:30:10.861Z,38.20
2018-08-23T14:32:38.883Z,38.40
2018-08-23T14:35:07.231Z,38.00
2018-08-23T14:37:35.220Z,38.00
2018-08-23T14:40:03.243Z,37.80
2018-08-23T14:42:31.175Z,37.90
2018-08-23T14:44:59.144Z,37.60
2018-08-23T14:47:32.683Z,37.30
2018-08-23T14:50:00.970Z,37.50
2018-08-23T14:52:28.934Z,36.60
2018-08-23T14:54:56.896Z,36.90
2018-08-23T14:57:30.335Z,36.60
2018-08-23T14:59:58.317Z,36.70
2018-08-23T15:02:26.477Z,37.00
2018-08-23T15:04:54.431Z,36.70
2018-08-23T15:07:22.400Z,36.70
2018-08-23T15:09:50.661Z,36.90
2018-08-23T15:12:18.637Z,36.50
2018-08-23T15:14:46.619Z,36.70
2018-08-23T15:17:14.609Z,36.30
2018-08-23T15:19:42.590Z,36.10
2018-08-23T15:22:11.139Z,36.00
2018-08-23T15:24:39.261Z,36.00
2018-08-23T15:27:07.331Z,36.10
2018-08-23T15:29:35.236Z,36.50
2018-08-23T15:32:03.282Z,36.60
2018-08-23T15:34:31.247Z,36.80
2018-08-23T15:36:59.226Z,36.60
2018-08-23T15:39:27.233Z,36.20
2018-08-23T15:41:55.238Z,36.40
2018-08-23T15:44:23.229Z,35.80
2018-08-23T15:46:51.189Z,35.60
2018-08-23T15:49:19.171Z,35.50
2018-08-23T15:51:47.161Z,35.10
2018-08-23T15:54:16.997Z,34.70
2018-08-23T15:56:44.999Z,34.10
2018-08-23T15:59:13.018Z,34.40
2018-08-23T16:01:41.068Z,34.90
2018-08-23T16:04:09.181Z,35.20
2018-08-23T16:06:37.147Z,35.50
2018-08-23T16:09:09.568Z,35.60
2018-08-23T16:11:37.936Z,35.80
2018-08-23T16:14:06.536Z,36.00
2018-08-23T16:16:40.106Z,36.00
2018-08-23T16:19:17.382Z,36.20
2018-08-23T16:21:49.632Z,36.30
2018-08-23T16:24:17.651Z,36.20
2018-08-23T16:26:51.504Z,36.20
2018-08-23T16:29:19.490Z,36.10
2018-08-23T16:31:47.462Z,36.30
2018-08-23T16:34:15.447Z,36.30
2018-08-23T16:36:43.452Z,36.10
2018-08-23T16:39:11.454Z,36.10
2018-08-23T16:41:39.418Z,36.10
2018-08-23T16:44:08.519Z,36.20
2018-08-23T16:46:36.505Z,36.40
2018-08-23T16:49:04.472Z,36.70
2018-08-23T16:51:32.468Z,36.60
2018-08-23T16:54:00.468Z,36.70
2018-08-23T16:56:28.466Z,36.70
2018-08-23T16:58:56.422Z,36.70
2018-08-23T17:01:24.398Z,36.70
2018-08-23T17:03:56.628Z,36.50
2018-08-23T17:06:25.888Z,36.90
2018-08-23T17:08:54.281Z,36.90
2018-08-23T17:11:22.270Z,36.80
2018-08-23T17:13:50.254Z,36.80
2018-08-23T17:16:23.759Z,36.80
2018-08-23T17:18:52.399Z,36.80
2018-08-23T17:21:20.371Z,36.40
2018-08-23T17:23:48.362Z,36.60
2018-08-23T17:26:16.347Z,36.40
2018-08-23T17:28:44.339Z,36.60
2018-08-23T17:31:12.348Z,36.90
2018-08-23T17:33:40.305Z,37.00
2018-08-23T17:36:08.282Z,37.40
2018-08-23T17:38:36.266Z,37.50
2018-08-23T17:41:04.249Z,37.70
2018-08-23T17:43:32.210Z,37.80
2018-08-23T17:46:00.200Z,38.00
2018-08-23T17:48:28.170Z,38.30
2018-08-23T17:53:30.428Z,38.90
2018-08-23T17:55:58.416Z,39.20
2018-08-23T17:58:26.361Z,39.50
2018-08-23T18:00:54.346Z,39.80
2018-08-23T18:03:22.320Z,40.10
2018-08-23T18:05:50.290Z,40.50
2018-08-23T18:08:18.317Z,40.80
2018-08-23T18:10:46.304Z,40.90
2018-08-23T18:13:14.280Z,41.10
2018-08-23T18:15:47.716Z,41.40
2018-08-23T18:18:15.698Z,41.60
2018-08-23T18:20:43.656Z,40.70
2018-08-23T18:23:11.624Z,40.60
2018-08-23T18:25:39.683Z,40.70
2018-08-23T18:28:07.571Z,41.20
2018-08-23T18:30:35.554Z,41.70
2018-08-23T18:33:03.526Z,42.10
2018-08-23T18:35:31.514Z,43.50
2018-08-23T18:37:59.537Z,42.80
2018-08-23T18:40:27.499Z,42.80
2018-08-23T18:42:55.494Z,42.90
2018-08-23T18:45:23.732Z,42.80
2018-08-23T18:47:51.700Z,42.90
2018-08-23T18:50:19.691Z,42.80
2018-08-23T18:52:47.652Z,42.40
2018-08-23T18:55:15.652Z,41.30
2018-08-23T18:57:43.623Z,41.80
2018-08-23T19:00:11.743Z,41.90
2018-08-23T19:02:39.572Z,42.10
2018-08-23T19:05:07.560Z,42.20
2018-08-23T19:07:40.462Z,42.90
2018-08-23T19:10:08.708Z,44.50
2018-08-23T19:12:36.643Z,45.60
2018-08-23T19:15:05.055Z,47.20
2018-08-23T19:17:35.840Z,48.70
2018-08-23T19:20:03.940Z,49.50
2018-08-23T19:22:32.242Z,50.00
2018-08-23T19:25:00.471Z,50.90
2018-08-23T19:27:28.681Z,51.10
2018-08-23T19:29:56.752Z,52.70
2018-08-23T19:32:24.799Z,53.20
2018-08-23T19:34:53.019Z,53.40
2018-08-23T19:37:21.074Z,52.90
2018-08-23T19:39:49.050Z,52.40
2018-08-23T19:42:17.060Z,52.00
2018-08-23T19:44:50.556Z,52.10
2018-08-23T19:47:23.989Z,52.30
2018-08-23T19:49:54.107Z,52.80
2018-08-23T19:52:22.666Z,52.30
2018-08-23T19:54:51.068Z,53.00
2018-08-23T20:00:03.483Z,53.00
2018-08-23T20:02:31.544Z,52.90
2018-08-23T20:04:59.530Z,53.10
2018-08-23T20:07:27.556Z,53.10
2018-08-23T20:09:55.551Z,53.10
2018-08-23T20:12:23.580Z,53.20
2018-08-23T20:14:51.504Z,53.40
2018-08-23T20:17:19.502Z,53.20
2018-08-23T20:19:47.485Z,53.10
2018-08-23T20:22:15.434Z,52.90
2018-08-23T20:24:43.432Z,52.80
2018-08-23T20:27:11.421Z,53.10
2018-08-23T20:29:39.373Z,53.60
2018-08-23T20:32:07.374Z,53.50
2018-08-23T20:34:35.306Z,53.50
2018-08-23T20:37:03.309Z,53.50
2018-08-23T20:39:31.388Z,53.40
2018-08-23T20:41:59.302Z,53.30
2018-08-23T20:44:27.289Z,54.20
2018-08-23T20:46:55.758Z,54.70
2018-08-23T20:49:23.778Z,54.20
2018-08-23T20:51:51.762Z,54.70
2018-08-23T20:54:19.938Z,54.60
2018-08-23T20:56:48.113Z,54.60
2018-08-23T20:59:16.127Z,54.40
2018-08-23T21:01:44.574Z,54.40
2018-08-23T21:04:12.756Z,54.50
2018-08-23T21:06:41.045Z,54.60
2018-08-23T21:09:11.277Z,54.90
2018-08-23T21:11:39.924Z,55.00
2018-08-23T21:14:08.766Z,55.30
2018-08-23T21:16:36.902Z,55.40
2018-08-23T21:19:04.936Z,55.50
2018-08-23T21:21:32.924Z,55.20
2018-08-23T21:24:01.255Z,55.20
2018-08-23T21:26:29.451Z,55.20
2018-08-23T21:28:58.164Z,55.20
2018-08-23T21:31:26.381Z,55.60
2018-08-23T21:33:54.399Z,55.00
2018-08-23T21:36:22.808Z,55.10
2018-08-23T21:38:51.348Z,55.20
2018-08-23T21:41:19.675Z,55.90
2018-08-23T21:43:47.665Z,55.70
2018-08-23T21:46:15.642Z,55.70
2018-08-23T21:48:43.625Z,55.70
2018-08-23T21:51:12.367Z,55.40
2018-08-23T21:53:40.700Z,55.50
2018-08-23T21:56:08.711Z,55.50
2018-08-23T21:58:36.669Z,55.60
2018-08-23T22:01:05.679Z,55.80
2018-08-23T22:03:33.676Z,56.40
2018-08-23T22:06:01.643Z,56.30
2018-08-23T22:08:29.674Z,56.50
2018-08-23T22:10:57.701Z,56.50
2018-08-23T22:13:25.726Z,57.00
2018-08-23T22:15:53.837Z,57.00
2018-08-23T22:18:21.797Z,57.00
2018-08-23T22:20:49.877Z,57.10
2018-08-23T22:23:17.988Z,57.10
2018-08-23T22:25:45.951Z,57.20
2018-08-23T22:28:14.034Z,57.30
2018-08-23T22:30:42.250Z,57.20
2018-08-23T22:33:11.526Z,57.60
2018-08-23T22:35:39.523Z,57.60
2018-08-23T22:38:07.831Z,57.60
2018-08-23T22:40:36.078Z,57.60
2018-08-23T22:43:04.080Z,57.50
2018-08-23T22:45:32.062Z,58.00
2018-08-23T22:48:00.043Z,57.40
2018-08-23T22:50:28.082Z,57.30
2018-08-23T22:52:56.392Z,57.20
2018-08-23T22:55:24.343Z,57.00
2018-08-23T22:57:52.363Z,56.90
2018-08-23T23:00:25.046Z,56.80
2018-08-23T23:02:53.033Z,56.80
2018-08-23T23:05:21.060Z,56.70
2018-08-23T23:07:48.976Z,56.50
2018-08-23T23:10:16.960Z,56.40
2018-08-23T23:12:44.920Z,56.40
2018-08-23T23:15:18.298Z,56.50
2018-08-23T23:17:46.256Z,56.70
2018-08-23T23:20:14.213Z,56.70
2018-08-23T23:22:45.581Z,56.70
2018-08-23T23:25:13.552Z,56.50
2018-08-23T23:27:41.548Z,56.40
2018-08-23T23:30:09.540Z,56.40
2018-08-23T23:32:37.508Z,56.30
2018-08-23T23:35:05.592Z,56.20
2018-08-23T23:37:33.912Z,56.20
2018-08-23T23:40:01.873Z,56.20
2018-08-23T23:42:29.830Z,56.20
2018-08-23T23:44:58.134Z,56.20
2018-08-23T23:47:26.135Z,56.30
2018-08-23T23:49:54.185Z,56.30
2018-08-23T23:52:22.155Z,56.40
2018-08-23T23:54:50.126Z,57.30
2018-08-23T23:57:18.123Z,56.80
2018-08-23T23:59:46.086Z,56.90
